createdAt,value
2023-04-03T00:01:32.398Z,101197.78
2023-04-03T00:04:00.042Z,101200.44
2023-04-03T00:06:27.699Z,101196.09
2023-04-03T00:08:55.258Z,101202.25
2023-04-03T00:11:22.931Z,101198.81
2023-04-03T00:13:51.021Z,101201.41
2023-04-03T00:16:20.408Z,101199.69
2023-04-03T00:18:48.050Z,101195.34
2023-04-03T00:21:15.713Z,101197.06
2023-04-03T00:23:43.373Z,101199.72
2023-04-03T00:26:11.390Z,101197.13
2023-04-03T00:28:39.255Z,101201.53
2023-04-03T00:31:06.859Z,101200.69
2023-04-03T00:33:34.485Z,101194.63
2023-04-03T00:36:02.174Z,101198.13
2023-04-03T00:38:30.669Z,101200.72
2023-04-03T00:40:58.294Z,101199.00
2023-04-03T00:43:25.929Z,101200.81
2023-04-03T00:45:53.605Z,101204.34
2023-04-03T00:48:21.240Z,101201.78
2023-04-03T00:50:49.242Z,101201.78
2023-04-03T00:53:16.928Z,101208.72
2023-04-03T00:55:44.548Z,101207.00
2023-04-03T00:58:12.502Z,101204.34
2023-04-03T01:00:40.415Z,101213.91
2023-04-03T01:03:08.376Z,101215.63
2023-04-03T01:05:36.084Z,101208.66
2023-04-03T01:08:03.720Z,101213.84
2023-04-03T01:10:31.386Z,101219.06
2023-04-03T01:12:59.030Z,101213.84
2023-04-03T01:15:27.031Z,101215.59
2023-04-03T01:17:54.825Z,101219.06
2023-04-03T01:20:22.453Z,101214.69
2023-04-03T01:22:50.059Z,101221.66
2023-04-03T01:25:17.658Z,101219.06
2023-04-03T01:27:45.636Z,101217.31
2023-04-03T01:30:13.192Z,101213.84
2023-04-03T01:32:40.899Z,101212.09
2023-04-03T01:35:08.574Z,101213.84
2023-04-03T01:37:36.192Z,101219.94
2023-04-03T01:40:04.205Z,101217.31
2023-04-03T01:42:34.306Z,101219.94
2023-04-03T01:45:02.306Z,101225.16
2023-04-03T01:47:29.914Z,101224.28
2023-04-03T01:49:57.506Z,101219.03
2023-04-03T01:52:25.577Z,101219.78
2023-04-03T01:54:53.154Z,101216.97
2023-04-03T01:57:20.965Z,101210.50
2023-04-03T01:59:48.518Z,101213.75
2023-04-03T02:02:16.077Z,101211.78
2023-04-03T02:04:44.061Z,101210.75
2023-04-03T02:07:13.303Z,101211.41
2023-04-03T02:09:40.891Z,101204.25
2023-04-03T02:12:08.522Z,101204.91
2023-04-03T02:14:36.129Z,101203.00
2023-04-03T02:17:06.463Z,101206.38
2023-04-03T02:19:34.234Z,101212.34
2023-04-03T02:22:01.833Z,101209.63
2023-04-03T02:24:29.758Z,101209.56
2023-04-03T02:26:57.360Z,101220.88
2023-04-03T02:29:25.998Z,101220.88
2023-04-03T02:31:53.699Z,101222.56
2023-04-03T02:34:21.556Z,101221.69
2023-04-03T02:36:49.120Z,101223.50
2023-04-03T02:39:16.907Z,101233.97
2023-04-03T02:41:44.955Z,101233.91
2023-04-03T02:44:12.519Z,101232.19
2023-04-03T02:46:40.071Z,101233.91
2023-04-03T02:49:07.710Z,101230.38
2023-04-03T02:51:35.254Z,101234.78
2023-04-03T02:54:03.246Z,101239.13
2023-04-03T02:56:30.880Z,101238.25
2023-04-03T02:58:58.399Z,101231.25
2023-04-03T03:01:25.941Z,101232.97
2023-04-03T03:03:53.538Z,101228.53
2023-04-03T03:06:21.554Z,101225.84
2023-04-03T03:08:49.320Z,101226.63
2023-04-03T03:11:16.974Z,101228.41
2023-04-03T03:13:45.061Z,101224.88
2023-04-03T03:16:12.622Z,101228.31
2023-04-03T03:18:40.577Z,101238.00
2023-04-03T03:21:08.317Z,101231.94
2023-04-03T03:23:35.867Z,101240.69
2023-04-03T03:26:03.446Z,101231.03
2023-04-03T03:28:31.002Z,101236.25
2023-04-03T03:30:58.925Z,101238.81
2023-04-03T03:33:27.200Z,101239.72
2023-04-03T03:35:55.145Z,101238.03
2023-04-03T03:38:22.867Z,101238.06
2023-04-03T03:40:50.816Z,101238.03
2023-04-03T03:43:18.568Z,101235.41
2023-04-03T03:45:46.625Z,101236.34
2023-04-03T03:48:14.224Z,101237.22
2023-04-03T03:50:41.762Z,101233.75
2023-04-03T03:53:09.377Z,101240.75
2023-04-03T03:55:37.548Z,101227.72
2023-04-03T03:58:06.731Z,101236.53
2023-04-03T04:00:34.331Z,101234.84
2023-04-03T04:03:02.078Z,101238.44
2023-04-03T04:05:29.738Z,101242.81
2023-04-03T04:07:57.686Z,101243.78
2023-04-03T04:10:25.363Z,101240.31
2023-04-03T04:12:52.943Z,101253.53
2023-04-03T04:15:22.602Z,101248.31
2023-04-03T04:17:50.236Z,101248.34
2023-04-03T04:20:17.840Z,101239.66
2023-04-03T04:22:45.444Z,101255.44
2023-04-03T04:25:13.055Z,101250.19
2023-04-03T04:27:40.621Z,101244.97
2023-04-03T04:30:08.187Z,101251.09
2023-04-03T04:32:35.821Z,101258.97
2023-04-03T04:35:04.002Z,101257.28
2023-04-03T04:37:31.658Z,101257.31
2023-04-03T04:39:59.751Z,101258.25
2023-04-03T04:42:31.450Z,101266.16
2023-04-03T04:44:59.405Z,101260.13
2023-04-03T04:47:27.048Z,101263.66
2023-04-03T04:49:54.593Z,101268.13
2023-04-03T04:52:22.133Z,101268.22
2023-04-03T04:54:49.798Z,101270.03
2023-04-03T04:57:17.794Z,101275.28
2023-04-03T04:59:45.949Z,101282.28
2023-04-03T05:02:14.031Z,101281.41
2023-04-03T05:04:41.688Z,101279.66
2023-04-03T05:07:09.260Z,101284.97
2023-04-03T05:09:37.250Z,101294.63
2023-04-03T05:12:05.476Z,101290.38
2023-04-03T05:14:33.059Z,101297.44
2023-04-03T05:17:00.724Z,101301.03
2023-04-03T05:19:28.276Z,101303.75
2023-04-03T05:21:56.232Z,101302.97
2023-04-03T05:24:25.909Z,101303.88
2023-04-03T05:26:53.455Z,101304.69
2023-04-03T05:29:21.042Z,101305.56
2023-04-03T05:31:48.714Z,101314.22
2023-04-03T05:34:16.304Z,101311.56
2023-04-03T05:36:44.096Z,101317.69
2023-04-03T05:39:11.913Z,101318.50
2023-04-03T05:41:39.498Z,101327.25
2023-04-03T05:44:07.100Z,101323.72
2023-04-03T05:46:35.400Z,101333.22
2023-04-03T05:49:03.182Z,101331.34
2023-04-03T05:51:31.005Z,101339.91
2023-04-03T05:53:58.721Z,101332.75
2023-04-03T05:56:26.678Z,101343.94
2023-04-03T05:58:54.650Z,101336.81
2023-04-03T06:01:22.964Z,101338.41
2023-04-03T06:03:50.802Z,101334.78
2023-04-03T06:06:18.484Z,101335.44
2023-04-03T06:08:47.343Z,101340.47
2023-04-03T06:11:14.933Z,101345.50
2023-04-03T06:13:42.568Z,101353.16
2023-04-03T06:16:10.877Z,101351.22
2023-04-03T06:18:38.604Z,101350.97
2023-04-03T06:21:06.210Z,101357.72
2023-04-03T06:23:34.528Z,101352.22
2023-04-03T06:26:02.354Z,101347.63
2023-04-03T06:28:30.020Z,101351.78
2023-04-03T06:30:58.184Z,101355.97
2023-04-03T06:33:25.928Z,101346.94
2023-04-03T06:35:54.227Z,101360.81
2023-04-03T06:38:22.275Z,101355.34
2023-04-03T06:40:49.865Z,101351.56
2023-04-03T06:43:17.509Z,101347.03
2023-04-03T06:45:45.146Z,101352.03
2023-04-03T06:48:12.898Z,101353.59
2023-04-03T06:50:40.614Z,101352.66
2023-04-03T06:53:08.367Z,101354.28
2023-04-03T06:55:36.222Z,101359.41
2023-04-03T06:58:04.943Z,101370.59
2023-04-03T07:00:33.071Z,101362.63
2023-04-03T07:03:00.817Z,101366.88
2023-04-03T07:05:28.688Z,101367.53
2023-04-03T07:07:56.735Z,101370.00
2023-04-03T07:10:24.439Z,101366.34
2023-04-03T07:12:52.541Z,101353.09
2023-04-03T07:15:22.340Z,101369.69
2023-04-03T07:17:50.104Z,101370.47
2023-04-03T07:20:17.826Z,101372.03
2023-04-03T07:22:45.604Z,101375.34
2023-04-03T07:25:13.588Z,101380.44
2023-04-03T07:27:41.666Z,101384.66
2023-04-03T07:30:10.455Z,101381.91
2023-04-03T07:32:38.166Z,101390.50
2023-04-03T07:35:06.051Z,101391.13
2023-04-03T07:37:34.783Z,101388.22
2023-04-03T07:40:04.627Z,101381.81
2023-04-03T07:42:32.723Z,101392.09
2023-04-03T07:45:01.417Z,101391.13
2023-04-03T07:47:29.143Z,101390.19
2023-04-03T07:49:58.395Z,101390.06
2023-04-03T07:52:26.425Z,101386.41
2023-04-03T07:54:54.095Z,101385.28
2023-04-03T07:57:21.963Z,101392.84
2023-04-03T07:59:50.152Z,101389.78
2023-04-03T08:02:18.253Z,101392.91
2023-04-03T08:04:46.438Z,101383.03
2023-04-03T08:07:14.579Z,101390.72
2023-04-03T08:09:42.588Z,101392.34
2023-04-03T08:12:12.663Z,101391.22
2023-04-03T08:14:41.001Z,101395.44
2023-04-03T08:17:12.664Z,101403.06
2023-04-03T08:19:40.702Z,101397.56
2023-04-03T08:22:08.385Z,101408.69
2023-04-03T08:24:37.561Z,101410.19
2023-04-03T08:27:05.616Z,101401.94
2023-04-03T08:29:33.760Z,101399.97
2023-04-03T08:32:02.442Z,101404.91
2023-04-03T08:34:30.333Z,101396.66
2023-04-03T08:36:58.040Z,101383.22
2023-04-03T08:39:26.475Z,101389.88
2023-04-03T08:41:54.339Z,101384.19
2023-04-03T08:44:23.717Z,101385.63
2023-04-03T08:46:51.684Z,101380.63
2023-04-03T08:49:19.541Z,101382.94
2023-04-03T08:51:47.429Z,101384.16
2023-04-03T08:54:15.339Z,101379.25
2023-04-03T08:56:43.367Z,101389.31
2023-04-03T08:59:11.113Z,101390.66
2023-04-03T09:01:39.199Z,101385.78
2023-04-03T09:04:08.013Z,101387.13
2023-04-03T09:06:38.071Z,101384.81
2023-04-03T09:09:07.251Z,101388.97
2023-04-03T09:11:35.246Z,101378.94
2023-04-03T09:14:04.187Z,101373.22
2023-04-03T09:16:32.382Z,101376.56
2023-04-03T09:19:00.897Z,101372.63
2023-04-03T09:21:28.819Z,101378.44
2023-04-03T09:23:56.606Z,101373.44
2023-04-03T09:26:24.594Z,101372.25
2023-04-03T09:28:53.575Z,101369.63
2023-04-03T09:31:22.057Z,101373.31
2023-04-03T09:33:50.105Z,101363.44
2023-04-03T09:36:17.959Z,101360.44
2023-04-03T09:38:45.891Z,101373.53
2023-04-03T09:41:14.389Z,101361.53
2023-04-03T09:43:42.820Z,101373.00
2023-04-03T09:46:10.624Z,101368.91
2023-04-03T09:48:38.642Z,101366.88
2023-04-03T09:51:06.553Z,101365.66
2023-04-03T09:53:34.962Z,101367.84
2023-04-03T09:56:04.612Z,101362.28
2023-04-03T09:58:46.769Z,101354.81
2023-04-03T10:01:18.490Z,101341.25
2023-04-03T10:03:48.431Z,101338.25
2023-04-03T10:06:16.549Z,101328.44
2023-04-03T10:08:44.410Z,101327.53
2023-04-03T10:11:12.733Z,101332.72
2023-04-03T10:13:50.796Z,101325.81
2023-04-03T10:16:19.770Z,101316.97
2023-04-03T10:18:48.155Z,101318.31
2023-04-03T10:21:26.642Z,101305.13
2023-04-03T10:23:54.974Z,101305.97
2023-04-03T10:26:23.799Z,101305.72
2023-04-03T10:28:51.966Z,101303.03
2023-04-03T10:31:20.982Z,101307.91
2023-04-03T10:33:48.988Z,101307.84
2023-04-03T10:36:16.950Z,101296.50
2023-04-03T10:38:45.418Z,101301.31
2023-04-03T10:41:14.077Z,101302.91
2023-04-03T10:43:43.108Z,101298.06
2023-04-03T10:46:11.158Z,101311.03
2023-04-03T10:48:39.021Z,101301.50
2023-04-03T10:51:08.265Z,101302.63
2023-04-03T10:53:36.850Z,101297.53
2023-04-03T10:56:05.230Z,101305.28
2023-04-03T10:58:33.096Z,101307.56
2023-04-03T11:01:01.603Z,101305.50
2023-04-03T11:03:30.801Z,101305.94
2023-04-03T11:05:58.754Z,101296.78
2023-04-03T11:08:27.629Z,101287.91
2023-04-03T11:10:55.463Z,101291.88
2023-04-03T11:13:24.372Z,101293.97
2023-04-03T11:15:54.837Z,101280.22
2023-04-03T11:18:22.826Z,101282.38
2023-04-03T11:20:50.955Z,101285.22
2023-04-03T11:23:19.007Z,101275.00
2023-04-03T11:25:46.906Z,101282.09
2023-04-03T11:28:15.482Z,101287.47
2023-04-03T11:30:43.988Z,101271.00
2023-04-03T11:33:11.924Z,101271.72
2023-04-03T11:35:39.934Z,101278.50
2023-04-03T11:38:08.829Z,101276.97
2023-04-03T11:40:37.843Z,101274.38
2023-04-03T11:43:05.992Z,101270.00
2023-04-03T11:45:33.938Z,101259.34
2023-04-03T11:48:09.882Z,101259.91
2023-04-03T11:50:45.738Z,101258.91
2023-04-03T11:53:13.716Z,101246.22
2023-04-03T11:55:41.663Z,101245.25
2023-04-03T11:58:09.784Z,101246.56
2023-04-03T12:00:37.582Z,101246.16
2023-04-03T12:03:06.741Z,101241.59
2023-04-03T12:05:34.865Z,101248.88
2023-04-03T12:08:02.848Z,101254.47
2023-04-03T12:10:32.666Z,101230.06
2023-04-03T12:13:00.825Z,101234.59
2023-04-03T12:15:29.257Z,101244.94
2023-04-03T12:17:57.028Z,101243.41
2023-04-03T12:20:24.984Z,101252.59
2023-04-03T12:22:52.857Z,101234.47
2023-04-03T12:25:20.912Z,101237.47
2023-04-03T12:27:49.780Z,101230.44
2023-04-03T12:30:19.620Z,101223.72
2023-04-03T12:32:48.321Z,101228.75
2023-04-03T12:35:17.335Z,101229.03
2023-04-03T12:37:45.278Z,101222.09
2023-04-03T12:40:15.622Z,101235.03
2023-04-03T12:42:43.675Z,101221.06
2023-04-03T12:45:11.646Z,101226.38
2023-04-03T12:47:41.216Z,101217.72
2023-04-03T12:50:09.093Z,101210.75
2023-04-03T12:52:37.433Z,101216.38
2023-04-03T12:55:06.418Z,101210.00
2023-04-03T12:57:34.965Z,101211.81
2023-04-03T13:00:04.630Z,101217.41
2023-04-03T13:02:33.164Z,101215.63
2023-04-03T13:05:01.651Z,101210.97
2023-04-03T13:07:29.881Z,101202.09
2023-04-03T13:09:57.785Z,101226.09
2023-04-03T13:12:25.988Z,101212.34
2023-04-03T13:14:54.024Z,101225.44
2023-04-03T13:17:23.097Z,101225.91
2023-04-03T13:19:51.876Z,101231.28
2023-04-03T13:22:19.953Z,101222.94
2023-04-03T13:24:48.200Z,101221.34
2023-04-03T13:27:16.122Z,101219.78
2023-04-03T13:29:45.154Z,101215.53
2023-04-03T13:32:13.163Z,101229.50
2023-04-03T13:34:41.089Z,101221.41
2023-04-03T13:37:09.369Z,101214.13
2023-04-03T13:39:38.163Z,101203.25
2023-04-03T13:42:06.458Z,101212.22
2023-04-03T13:44:34.280Z,101200.38
2023-04-03T13:47:02.453Z,101194.19
2023-04-03T13:49:30.429Z,101191.44
2023-04-03T13:52:07.170Z,101196.97
2023-04-03T13:54:36.576Z,101187.25
2023-04-03T13:57:04.518Z,101186.44
2023-04-03T13:59:32.450Z,101186.69
2023-04-03T14:02:00.393Z,101182.22
2023-04-03T14:04:29.184Z,101178.19
2023-04-03T14:06:57.537Z,101175.34
2023-04-03T14:09:25.523Z,101181.13
2023-04-03T14:11:53.555Z,101177.97
2023-04-03T14:14:21.484Z,101174.38
2023-04-03T14:16:49.473Z,101162.28
2023-04-03T14:19:18.314Z,101174.44
2023-04-03T14:21:46.254Z,101174.44
2023-04-03T14:24:14.506Z,101168.41
2023-04-03T14:26:42.363Z,101168.34
2023-04-03T14:29:11.037Z,101162.97
2023-04-03T14:31:39.897Z,101159.72
2023-04-03T14:34:07.802Z,101158.31
2023-04-03T14:36:35.754Z,101160.19
2023-04-03T14:39:03.888Z,101145.09
2023-04-03T14:41:31.784Z,101139.28
2023-04-03T14:44:00.372Z,101138.00
2023-04-03T14:46:35.058Z,101137.28
2023-04-03T14:49:08.821Z,101143.84
2023-04-03T14:51:39.428Z,101147.44
2023-04-03T14:54:08.133Z,101157.28
2023-04-03T14:56:36.105Z,101149.00
2023-04-03T14:59:04.737Z,101141.28
2023-04-03T15:01:32.599Z,101142.03
2023-04-03T15:04:00.563Z,101131.78
2023-04-03T15:06:29.101Z,101133.59
2023-04-03T15:08:57.031Z,101134.59
2023-04-03T15:11:25.325Z,101135.47
2023-04-03T15:13:53.439Z,101135.97
2023-04-03T15:16:21.431Z,101124.81
2023-04-03T15:18:49.425Z,101121.53
2023-04-03T15:21:18.235Z,101134.59
2023-04-03T15:23:46.184Z,101126.00
2023-04-03T15:26:14.096Z,101130.03
2023-04-03T15:28:42.348Z,101125.25
2023-04-03T15:31:10.708Z,101118.09
2023-04-03T15:33:38.999Z,101106.50
2023-04-03T15:36:11.957Z,101130.34
2023-04-03T15:38:50.606Z,101121.56
2023-04-03T15:41:19.331Z,101117.88
2023-04-03T15:43:47.297Z,101122.41
2023-04-03T15:46:15.187Z,101124.69
2023-04-03T15:48:43.221Z,101130.50
2023-04-03T15:51:10.993Z,101122.41
2023-04-03T15:53:39.341Z,101125.53
2023-04-03T15:56:07.269Z,101123.84
2023-04-03T15:58:35.012Z,101123.28
2023-04-03T16:01:02.870Z,101118.72
2023-04-03T16:03:31.394Z,101131.09
2023-04-03T16:06:00.163Z,101128.38
2023-04-03T16:08:28.002Z,101133.19
2023-04-03T16:10:55.985Z,101151.41
2023-04-03T16:13:23.924Z,101155.16
2023-04-03T16:15:52.314Z,101165.16
2023-04-03T16:18:21.572Z,101172.03
2023-04-03T16:20:49.610Z,101170.41
2023-04-03T16:25:47.743Z,101173.19
2023-04-03T16:28:15.755Z,101168.63
2023-04-03T16:30:43.868Z,101175.97
2023-04-03T16:33:11.868Z,101178.56
2023-04-03T16:35:40.011Z,101179.00
2023-04-03T16:38:08.525Z,101179.41
2023-04-03T16:40:36.662Z,101178.66
2023-04-03T16:43:05.253Z,101180.41
2023-04-03T16:45:33.205Z,101189.03
2023-04-03T16:48:01.216Z,101188.81
2023-04-03T16:50:29.185Z,101180.56
2023-04-03T16:52:57.102Z,101181.88
2023-04-03T16:55:26.130Z,101185.94
2023-04-03T16:57:55.606Z,101195.31
2023-04-03T17:00:23.749Z,101192.13
2023-04-03T17:02:51.682Z,101192.56
2023-04-03T17:05:19.711Z,101200.06
2023-04-03T17:07:48.173Z,101197.69
2023-04-03T17:10:16.083Z,101197.22
2023-04-03T17:12:43.972Z,101189.72
2023-04-03T17:15:11.748Z,101197.09
2023-04-03T17:17:39.753Z,101192.97
2023-04-03T17:20:07.970Z,101201.25
2023-04-03T17:22:36.299Z,101190.94
2023-04-03T17:25:04.230Z,101196.47
2023-04-03T17:27:32.076Z,101210.88
2023-04-03T17:30:00.008Z,101197.06
2023-04-03T17:32:28.367Z,101198.09
2023-04-03T17:34:56.436Z,101187.88
2023-04-03T17:37:24.290Z,101194.28
2023-04-03T17:39:52.351Z,101194.56
2023-04-03T17:42:20.429Z,101201.88
2023-04-03T17:45:08.992Z,101197.78
2023-04-03T17:47:37.044Z,101196.34
2023-04-03T17:50:05.103Z,101202.78
2023-04-03T17:52:33.135Z,101196.03
2023-04-03T17:55:01.059Z,101197.16
2023-04-03T17:57:29.756Z,101198.28
2023-04-03T17:59:57.852Z,101195.97
2023-04-03T18:02:25.975Z,101196.19
2023-04-03T18:04:53.757Z,101198.22
2023-04-03T18:07:21.957Z,101201.16
2023-04-03T18:09:49.878Z,101202.25
2023-04-03T18:12:17.851Z,101208.66
2023-04-03T18:14:45.628Z,101205.34
2023-04-03T18:20:18.436Z,101207.72
2023-04-03T18:22:55.337Z,101208.88
2023-04-03T18:25:23.362Z,101209.13
2023-04-03T18:27:51.687Z,101205.81
2023-04-03T18:30:19.561Z,101205.16
2023-04-03T18:32:47.488Z,101208.78
2023-04-03T18:35:15.472Z,101205.44
2023-04-03T18:40:55.529Z,101206.63
2023-04-03T18:43:23.321Z,101202.47
2023-04-03T18:45:51.526Z,101205.28
2023-04-03T18:48:19.520Z,101211.69
2023-04-03T18:50:47.324Z,101202.22
2023-04-03T18:53:15.573Z,101218.16
2023-04-03T18:55:43.602Z,101209.59
2023-04-03T18:58:12.008Z,101219.41
2023-04-03T19:00:39.869Z,101212.53
2023-04-03T19:03:07.947Z,101212.81
2023-04-03T19:05:36.797Z,101220.81
2023-04-03T19:08:04.645Z,101223.59
2023-04-03T19:10:32.492Z,101226.31
2023-04-03T19:13:00.638Z,101227.25
2023-04-03T19:15:28.469Z,101228.31
2023-04-03T19:17:56.657Z,101231.97
2023-04-03T19:20:24.999Z,101233.84
2023-04-03T19:22:52.889Z,101241.00
2023-04-03T19:25:20.841Z,101235.06
2023-04-03T19:27:48.668Z,101243.06
2023-04-03T19:30:17.113Z,101240.59
2023-04-03T19:32:45.251Z,101236.28
2023-04-03T19:35:13.386Z,101236.41
2023-04-03T19:37:41.396Z,101234.75
2023-04-03T19:40:09.748Z,101234.00
2023-04-03T19:42:43.459Z,101238.50
2023-04-03T19:45:11.659Z,101244.81
2023-04-03T19:47:39.541Z,101244.97
2023-04-03T19:50:07.530Z,101241.59
2023-04-03T19:52:35.685Z,101241.69
2023-04-03T19:55:03.959Z,101234.81
2023-04-03T19:57:31.999Z,101240.16
2023-04-03T20:00:00.249Z,101242.00
2023-04-03T20:02:28.381Z,101241.25
2023-04-03T20:04:56.985Z,101244.81
2023-04-03T20:07:26.282Z,101238.78
2023-04-03T20:09:54.354Z,101231.88
2023-04-03T20:12:22.764Z,101231.06
2023-04-03T20:14:50.873Z,101233.81
2023-04-03T20:17:19.136Z,101237.38
2023-04-03T20:19:47.899Z,101233.06
2023-04-03T20:22:16.141Z,101238.50
2023-04-03T20:24:44.225Z,101221.97
2023-04-03T20:27:12.546Z,101227.38
2023-04-03T20:29:40.525Z,101218.69
2023-04-03T20:32:10.818Z,101218.72
2023-04-03T20:34:38.731Z,101224.81
2023-04-03T20:37:07.024Z,101220.59
2023-04-03T20:39:35.130Z,101220.69
2023-04-03T20:42:03.616Z,101218.16
2023-04-03T20:44:32.534Z,101218.31
2023-04-03T20:47:00.394Z,101213.19
2023-04-03T20:49:28.700Z,101226.59
2023-04-03T20:51:56.584Z,101223.41
2023-04-03T20:54:24.995Z,101222.88
2023-04-03T20:56:53.582Z,101212.75
2023-04-03T20:59:22.850Z,101215.69
2023-04-03T21:01:50.737Z,101215.09
2023-04-03T21:04:18.675Z,101216.22
2023-04-03T21:06:46.476Z,101209.53
2023-04-03T21:09:14.681Z,101215.06
2023-04-03T21:11:43.370Z,101214.47
2023-04-03T21:14:12.989Z,101210.31
2023-04-03T21:16:40.764Z,101213.19
2023-04-03T21:19:08.793Z,101209.91
2023-04-03T21:21:37.942Z,101215.31
2023-04-03T21:24:06.811Z,101211.09
2023-04-03T21:26:34.598Z,101215.56
2023-04-03T21:29:02.403Z,101215.69
2023-04-03T21:31:30.300Z,101221.91
2023-04-03T21:33:58.973Z,101222.88
2023-04-03T21:36:26.916Z,101216.91
2023-04-03T21:38:54.906Z,101219.66
2023-04-03T21:41:22.700Z,101227.66
2023-04-03T21:43:50.614Z,101221.66
2023-04-03T21:46:20.867Z,101219.06
2023-04-03T21:48:48.615Z,101221.78
2023-04-03T21:51:17.493Z,101222.72
2023-04-03T21:53:45.996Z,101218.38
2023-04-03T21:56:14.085Z,101226.28
2023-04-03T21:58:42.175Z,101219.41
2023-04-03T22:01:09.884Z,101217.81
2023-04-03T22:03:37.834Z,101215.28
2023-04-03T22:06:05.572Z,101210.09
2023-04-03T22:08:33.829Z,101208.47
2023-04-03T22:11:03.007Z,101219.91
2023-04-03T22:13:30.871Z,101205.97
2023-04-03T22:15:59.533Z,101204.28
2023-04-03T22:18:27.805Z,101203.50
2023-04-03T22:20:55.833Z,101203.59
2023-04-03T22:23:24.384Z,101201.91
2023-04-03T22:25:52.023Z,101202.84
2023-04-03T22:28:20.929Z,101197.72
2023-04-03T22:30:48.862Z,101198.75
2023-04-03T22:33:16.635Z,101200.66
2023-04-03T22:35:44.852Z,101197.25
2023-04-03T22:38:13.270Z,101188.69
2023-04-03T22:40:41.646Z,101190.50
2023-04-03T22:43:09.542Z,101193.19
2023-04-03T22:45:37.711Z,101183.63
2023-04-03T22:48:05.765Z,101185.38
2023-04-03T22:50:37.264Z,101184.56
2023-04-03T22:53:04.917Z,101179.34
2023-04-03T22:55:32.611Z,101176.84
2023-04-03T22:58:00.315Z,101187.47
2023-04-03T23:00:28.825Z,101177.06
2023-04-03T23:02:56.724Z,101190.28
2023-04-03T23:05:24.487Z,101195.56
2023-04-03T23:07:52.475Z,101193.91
2023-04-03T23:10:20.215Z,101198.34
2023-04-03T23:12:48.576Z,101196.69
2023-04-03T23:15:17.733Z,101199.38
2023-04-03T23:17:45.690Z,101206.44
2023-04-03T23:20:13.339Z,101208.22
2023-04-03T23:22:41.174Z,101210.00
2023-04-03T23:25:10.193Z,101200.53
2023-04-03T23:27:38.065Z,101204.06
2023-04-03T23:30:05.663Z,101197.13
2023-04-03T23:32:33.325Z,101205.91
2023-04-03T23:35:01.151Z,101201.63
2023-04-03T23:37:29.094Z,101199.94
2023-04-03T23:39:56.812Z,101206.13
2023-04-03T23:42:24.514Z,101211.44
2023-04-03T23:44:52.133Z,101216.66
2023-04-03T23:47:20.169Z,101214.13
2023-04-03T23:49:48.305Z,101210.69
2023-04-03T23:52:15.965Z,101205.50
2023-04-03T23:54:43.562Z,101203.75
2023-04-03T23:57:11.214Z,101209.06
2023-04-03T23:59:38.793Z,101209.97
